createdAt,value
2024-01-20T00:03:41.250Z,48.04
2024-01-20T00:08:02.495Z,47.91
2024-01-20T00:12:23.322Z,48.19
2024-01-20T00:16:44.001Z,48.05
2024-01-20T00:21:08.355Z,48.15
2024-01-20T00:25:29.034Z,48.19
2024-01-20T00:29:49.698Z,48.78
2024-01-20T00:34:10.383Z,48.76
2024-01-20T00:38:34.456Z,48.39
2024-01-20T00:42:55.050Z,47.65
2024-01-20T00:47:15.805Z,48.47
2024-01-20T00:51:36.552Z,47.93
2024-01-20T00:55:59.930Z,47.97
2024-01-20T01:00:21.018Z,47.96
2024-01-20T01:04:41.611Z,47.55
2024-01-20T01:09:02.164Z,47.19
2024-01-20T01:13:25.430Z,48.11
2024-01-20T01:17:45.973Z,48.22
2024-01-20T01:22:07.006Z,48.00
2024-01-20T01:26:29.553Z,47.10
2024-01-20T01:30:53.850Z,46.84
2024-01-20T01:35:14.545Z,46.93
2024-01-20T01:39:35.195Z,47.33
2024-01-20T01:43:55.963Z,47.49
2024-01-20T01:48:19.476Z,47.55
2024-01-20T01:52:40.447Z,47.50
2024-01-20T01:57:04.455Z,47.71
2024-01-20T02:01:25.226Z,48.70
2024-01-20T02:05:48.840Z,48.47
2024-01-20T02:10:11.716Z,47.74
2024-01-20T02:14:33.301Z,47.16
2024-01-20T02:18:53.979Z,47.16
2024-01-20T02:23:17.223Z,47.62
2024-01-20T02:27:37.819Z,47.72
2024-01-20T02:31:58.489Z,47.38
2024-01-20T02:36:19.106Z,48.19
2024-01-20T02:40:42.261Z,48.32
2024-01-20T02:45:02.855Z,49.16
2024-01-20T02:49:23.746Z,47.88
2024-01-20T02:53:44.381Z,47.94
2024-01-20T02:58:07.725Z,48.15
2024-01-20T03:02:28.313Z,48.91
2024-01-20T03:06:48.999Z,49.44
2024-01-20T03:11:09.551Z,49.24
2024-01-20T03:15:32.842Z,49.21
2024-01-20T03:19:53.414Z,49.06
2024-01-20T03:24:13.976Z,48.81
2024-01-20T03:28:34.554Z,48.41
2024-01-20T03:32:57.782Z,48.35
2024-01-20T03:37:18.550Z,48.82
2024-01-20T03:41:39.126Z,48.45
2024-01-20T03:46:00.057Z,48.69
2024-01-20T03:50:23.327Z,48.59
2024-01-20T03:54:44.103Z,48.08
2024-01-20T03:59:04.728Z,48.96
2024-01-20T04:03:25.484Z,48.12
2024-01-20T04:07:49.347Z,48.01
2024-01-20T04:12:11.025Z,48.23
2024-01-20T04:16:32.159Z,48.63
2024-01-20T04:20:52.774Z,48.46
2024-01-20T04:25:16.923Z,48.94
2024-01-20T04:29:37.766Z,48.67
2024-01-20T04:33:59.037Z,48.86
2024-01-20T04:38:20.164Z,48.68
2024-01-20T04:42:43.493Z,48.39
2024-01-20T04:47:04.549Z,48.10
2024-01-20T04:51:25.610Z,48.85
2024-01-20T04:55:46.481Z,48.62
2024-01-20T05:00:11.988Z,48.55
2024-01-20T05:04:32.534Z,48.88
2024-01-20T05:08:53.110Z,48.77
2024-01-20T05:13:13.820Z,48.98
2024-01-20T05:17:37.092Z,49.26
2024-01-20T05:21:57.674Z,49.33
2024-01-20T05:26:18.452Z,49.08
2024-01-20T05:30:39.033Z,49.20
2024-01-20T05:35:02.179Z,49.06
2024-01-20T05:39:22.844Z,48.84
2024-01-20T05:43:43.410Z,48.54
2024-01-20T05:48:03.994Z,48.66
2024-01-20T05:52:27.322Z,48.43
2024-01-20T05:56:47.940Z,48.95
2024-01-20T06:01:08.935Z,48.72
2024-01-20T06:05:29.644Z,49.49
2024-01-20T06:09:52.805Z,49.78
2024-01-20T06:14:13.531Z,48.84
2024-01-20T06:18:34.485Z,48.98
2024-01-20T06:22:55.087Z,50.44
2024-01-20T06:27:18.645Z,50.19
2024-01-20T06:31:39.213Z,50.50
2024-01-20T06:35:59.990Z,50.28
2024-01-20T06:40:20.724Z,50.05
2024-01-20T06:44:43.905Z,49.91
2024-01-20T06:49:04.833Z,49.56
2024-01-20T06:53:25.466Z,49.07
2024-01-20T06:57:46.082Z,49.61
2024-01-20T07:02:09.755Z,49.41
2024-01-20T07:06:30.453Z,49.13
2024-01-20T07:10:51.229Z,49.67
2024-01-20T07:15:13.598Z,49.50
2024-01-20T07:19:36.792Z,49.64
2024-01-20T07:23:57.912Z,49.39
2024-01-20T07:28:18.674Z,49.89
2024-01-20T07:32:41.813Z,49.51
2024-01-20T07:37:05.547Z,49.65
2024-01-20T07:41:26.366Z,49.19
2024-01-20T07:45:47.296Z,49.75
2024-01-20T07:50:09.051Z,49.40
2024-01-20T07:54:32.416Z,49.02
2024-01-20T07:58:53.053Z,48.85
2024-01-20T08:03:13.880Z,48.92
2024-01-20T08:07:34.622Z,49.08
2024-01-20T08:11:57.939Z,49.63
2024-01-20T08:16:18.607Z,49.30
2024-01-20T08:20:39.277Z,48.53
2024-01-20T08:25:01.405Z,48.33
2024-01-20T08:29:24.881Z,47.46
2024-01-20T08:33:45.786Z,46.76
2024-01-20T08:38:07.141Z,45.59
2024-01-20T08:42:28.022Z,46.16
2024-01-20T08:46:51.704Z,45.19
2024-01-20T08:51:12.477Z,44.29
2024-01-20T08:55:33.177Z,43.46
2024-01-20T08:59:54.224Z,43.58
2024-01-20T09:04:17.595Z,43.42
2024-01-20T09:08:38.384Z,44.09
2024-01-20T09:12:58.914Z,44.41
2024-01-20T09:17:19.452Z,44.41
2024-01-20T09:21:46.806Z,44.61
2024-01-20T09:26:08.180Z,44.22
2024-01-20T09:30:28.767Z,44.19
2024-01-20T09:34:49.505Z,43.29
2024-01-20T09:39:13.613Z,43.17
2024-01-20T09:43:36.452Z,43.02
2024-01-20T09:47:57.300Z,44.08
2024-01-20T09:52:19.914Z,44.88
2024-01-20T09:56:43.831Z,45.45
2024-01-20T10:01:06.933Z,44.26
2024-01-20T10:05:29.849Z,44.23
2024-01-20T10:09:50.650Z,42.61
2024-01-20T10:14:13.823Z,42.41
2024-01-20T10:18:34.669Z,42.13
2024-01-20T10:22:55.982Z,41.76
2024-01-20T10:27:20.691Z,40.46
2024-01-20T10:31:44.088Z,39.62
2024-01-20T10:36:07.636Z,40.60
2024-01-20T10:40:31.145Z,40.40
2024-01-20T10:45:05.397Z,38.72
2024-01-20T10:49:28.671Z,37.34
2024-01-20T10:53:53.182Z,37.10
2024-01-20T10:58:19.209Z,36.56
2024-01-20T11:02:40.588Z,36.68
2024-01-20T11:07:04.241Z,37.64
2024-01-20T11:11:36.589Z,37.89
2024-01-20T11:15:59.988Z,38.50
2024-01-20T11:20:20.657Z,37.81
2024-01-20T11:24:46.406Z,37.13
2024-01-20T11:29:10.729Z,36.33
2024-01-20T11:33:36.250Z,36.07
2024-01-20T11:38:00.197Z,35.01
2024-01-20T11:42:27.738Z,35.03
2024-01-20T11:46:49.945Z,35.48
2024-01-20T11:51:13.093Z,35.45
2024-01-20T11:55:35.277Z,35.71
2024-01-20T11:59:58.687Z,35.41
2024-01-20T12:04:19.592Z,34.30
2024-01-20T12:08:42.652Z,34.12
2024-01-20T12:13:05.346Z,34.23
2024-01-20T12:17:29.478Z,33.98
2024-01-20T12:21:51.334Z,33.73
2024-01-20T12:26:16.003Z,33.29
2024-01-20T12:30:36.705Z,31.46
2024-01-20T12:34:59.933Z,31.62
2024-01-20T12:39:20.854Z,30.60
2024-01-20T12:43:41.753Z,30.49
2024-01-20T12:48:03.339Z,31.46
2024-01-20T12:52:27.449Z,31.19
2024-01-20T12:56:49.811Z,30.46
2024-01-20T13:01:10.566Z,29.72
2024-01-20T13:05:31.323Z,29.32
2024-01-20T13:09:54.705Z,30.64
2024-01-20T13:14:16.181Z,30.78
2024-01-20T13:18:37.563Z,29.24
2024-01-20T13:22:58.152Z,29.18
2024-01-20T13:27:21.709Z,29.64
2024-01-20T13:31:42.328Z,29.07
2024-01-20T13:36:03.052Z,29.23
2024-01-20T13:40:23.991Z,30.96
2024-01-20T13:44:47.220Z,31.77
2024-01-20T13:49:10.213Z,31.41
2024-01-20T13:53:32.429Z,30.14
2024-01-20T13:57:53.004Z,31.18
2024-01-20T14:02:16.319Z,30.77
2024-01-20T14:06:37.453Z,31.35
2024-01-20T14:10:58.038Z,30.69
2024-01-20T14:15:19.612Z,30.26
2024-01-20T14:19:42.857Z,30.61
2024-01-20T14:24:03.660Z,31.02
2024-01-20T14:28:24.840Z,31.08
2024-01-20T14:32:45.581Z,31.14
2024-01-20T14:37:09.620Z,31.33
2024-01-20T14:41:31.533Z,31.33
2024-01-20T14:45:52.295Z,31.67
2024-01-20T14:50:14.262Z,31.96
2024-01-20T14:54:38.982Z,33.33
2024-01-20T14:59:02.908Z,34.42
2024-01-20T15:03:23.572Z,33.62
2024-01-20T15:07:44.212Z,33.92
2024-01-20T15:12:07.953Z,33.87
2024-01-20T15:16:28.627Z,33.92
2024-01-20T15:20:49.218Z,33.84
2024-01-20T15:25:12.426Z,34.26
2024-01-20T15:29:35.749Z,35.24
2024-01-20T15:33:58.517Z,35.66
2024-01-20T15:38:19.755Z,36.81
2024-01-20T15:42:40.304Z,38.80
2024-01-20T15:47:03.518Z,39.17
2024-01-20T15:51:24.233Z,40.06
2024-01-20T15:55:44.767Z,41.20
2024-01-20T16:00:06.855Z,42.45
2024-01-20T16:04:35.395Z,42.72
2024-01-20T16:08:57.857Z,44.97
2024-01-20T16:13:18.408Z,45.75
2024-01-20T16:17:41.578Z,45.88
2024-01-20T16:22:04.992Z,46.54
2024-01-20T16:26:25.917Z,46.94
2024-01-20T16:30:46.683Z,47.65
2024-01-20T16:35:08.476Z,47.59
2024-01-20T16:39:31.678Z,47.68
2024-01-20T16:43:52.216Z,47.50
2024-01-20T16:48:12.931Z,47.97
2024-01-20T16:52:33.800Z,48.18
2024-01-20T16:56:56.904Z,48.62
2024-01-20T17:01:17.527Z,48.94
2024-01-20T17:05:40.162Z,49.65
2024-01-20T17:10:01.005Z,51.34
2024-01-20T17:14:26.284Z,50.48
2024-01-20T17:18:47.006Z,51.35
2024-01-20T17:23:07.896Z,51.32
2024-01-20T17:27:28.666Z,51.83
2024-01-20T17:31:52.050Z,52.00
2024-01-20T17:36:12.811Z,52.70
2024-01-20T17:40:33.638Z,52.38
2024-01-20T17:44:54.286Z,52.47
2024-01-20T17:49:17.503Z,52.19
2024-01-20T17:53:38.160Z,52.60
2024-01-20T17:58:00.566Z,53.03
2024-01-20T18:02:21.148Z,53.33
2024-01-20T18:06:44.410Z,52.88
2024-01-20T18:11:05.294Z,52.82
2024-01-20T18:15:26.151Z,53.45
2024-01-20T18:19:46.766Z,52.96
2024-01-20T18:24:10.233Z,53.13
2024-01-20T18:28:31.993Z,52.90
2024-01-20T18:32:52.558Z,53.77
2024-01-20T18:37:13.249Z,53.33
2024-01-20T18:41:36.382Z,53.43
2024-01-20T18:45:57.163Z,53.53
2024-01-20T18:50:18.830Z,53.86
2024-01-20T18:54:43.431Z,53.22
2024-01-20T18:59:07.206Z,53.33
2024-01-20T19:03:28.037Z,52.85
2024-01-20T19:07:48.727Z,52.96
2024-01-20T19:12:10.911Z,53.21
2024-01-20T19:16:36.555Z,53.78
2024-01-20T19:20:57.354Z,53.51
2024-01-20T19:25:18.230Z,53.94
2024-01-20T19:29:38.955Z,53.53
2024-01-20T19:34:02.909Z,53.55
2024-01-20T19:38:23.675Z,53.76
2024-01-20T19:42:49.310Z,53.36
2024-01-20T19:47:10.167Z,53.38
2024-01-20T19:51:34.607Z,53.57
2024-01-20T19:55:55.738Z,53.73
2024-01-20T20:00:21.497Z,54.17
2024-01-20T20:04:44.951Z,53.63
2024-01-20T20:09:10.613Z,53.38
2024-01-20T20:13:31.216Z,52.71
2024-01-20T20:17:52.216Z,52.82
2024-01-20T20:22:12.986Z,52.57
2024-01-20T20:26:36.429Z,52.96
2024-01-20T20:31:04.188Z,52.83
2024-01-20T20:35:28.278Z,52.77
2024-01-20T20:39:49.942Z,53.17
2024-01-20T20:44:13.450Z,53.30
2024-01-20T20:48:34.400Z,53.55
2024-01-20T20:52:55.132Z,53.43
2024-01-20T20:57:16.015Z,53.20
2024-01-20T21:01:39.244Z,53.21
2024-01-20T21:06:00.125Z,52.78
2024-01-20T21:10:21.179Z,52.75
2024-01-20T21:14:41.874Z,52.92
2024-01-20T21:19:05.207Z,53.04
2024-01-20T21:23:25.831Z,52.78
2024-01-20T21:27:46.976Z,52.67
2024-01-20T21:32:09.038Z,53.05
2024-01-20T21:36:32.236Z,52.89
2024-01-20T21:40:52.778Z,52.61
2024-01-20T21:45:14.128Z,52.92
2024-01-20T21:49:38.261Z,53.11
2024-01-20T21:54:03.459Z,53.38
2024-01-20T21:58:24.304Z,52.54
2024-01-20T22:02:45.434Z,52.43
2024-01-20T22:07:06.946Z,52.67
2024-01-20T22:11:30.916Z,52.49
2024-01-20T22:15:51.641Z,52.30
2024-01-20T22:20:14.469Z,52.26
2024-01-20T22:24:35.170Z,51.92
2024-01-20T22:28:59.225Z,51.67
2024-01-20T22:33:20.904Z,51.59
2024-01-20T22:37:41.620Z,52.26
2024-01-20T22:42:02.675Z,52.05
2024-01-20T22:46:27.377Z,51.90
2024-01-20T22:50:48.491Z,52.14
2024-01-20T22:55:10.486Z,52.09
2024-01-20T22:59:31.230Z,51.93
2024-01-20T23:03:54.410Z,52.18
2024-01-20T23:08:16.388Z,52.46
2024-01-20T23:12:37.329Z,52.10
2024-01-20T23:16:57.894Z,52.15
2024-01-20T23:21:21.135Z,52.45
2024-01-20T23:25:41.689Z,51.94
2024-01-20T23:30:02.379Z,52.16
2024-01-20T23:34:23.111Z,52.22
2024-01-20T23:38:46.880Z,52.08
2024-01-20T23:43:07.750Z,52.18
2024-01-20T23:47:28.269Z,51.99
2024-01-20T23:51:49.001Z,51.88
2024-01-20T23:56:13.161Z,52.40
